createdAt,value
2023-03-22T00:00:15.167Z,15.00
2023-03-22T00:02:45.593Z,14.30
2023-03-22T00:05:14.094Z,14.57
2023-03-22T00:07:43.612Z,12.93
2023-03-22T00:10:12.528Z,14.17
2023-03-22T00:12:41.376Z,12.90
2023-03-22T00:15:13.501Z,15.20
2023-03-22T00:17:48.029Z,16.20
2023-03-22T00:20:20.260Z,20.87
2023-03-22T00:22:49.628Z,17.03
2023-03-22T00:25:18.869Z,12.57
2023-03-22T00:27:47.406Z,27.17
2023-03-22T00:30:16.566Z,18.20
2023-03-22T00:32:47.604Z,20.33
2023-03-22T00:35:17.180Z,14.23
2023-03-22T00:37:45.838Z,16.40
2023-03-22T00:40:18.144Z,16.67
2023-03-22T00:42:47.013Z,13.83
2023-03-22T00:45:15.761Z,16.70
2023-03-22T00:47:44.068Z,14.57
2023-03-22T00:50:14.081Z,15.80
2023-03-22T00:52:42.660Z,16.03
2023-03-22T00:55:11.548Z,16.17
2023-03-22T00:57:40.026Z,14.60
2023-03-22T01:00:13.213Z,15.20
2023-03-22T01:02:42.611Z,17.93
2023-03-22T01:05:17.911Z,18.73
2023-03-22T01:07:46.319Z,18.53
2023-03-22T01:10:14.818Z,12.80
2023-03-22T01:12:43.184Z,17.43
2023-03-22T01:15:12.567Z,17.83
2023-03-22T01:17:41.925Z,17.87
2023-03-22T01:20:11.607Z,16.80
2023-03-22T01:22:42.085Z,21.53
2023-03-22T01:25:11.499Z,22.87
2023-03-22T01:27:40.099Z,28.63
2023-03-22T01:30:10.523Z,21.07
2023-03-22T01:32:40.378Z,27.87
2023-03-22T01:35:09.932Z,27.93
2023-03-22T01:37:41.329Z,27.70
2023-03-22T01:40:12.774Z,28.67
2023-03-22T01:42:41.981Z,27.93
2023-03-22T01:45:37.670Z,28.03
2023-03-22T01:48:24.112Z,24.20
2023-03-22T01:51:05.576Z,29.07
2023-03-22T01:53:46.847Z,20.63
2023-03-22T01:56:15.891Z,19.57
2023-03-22T01:58:44.551Z,23.33
2023-03-22T02:01:14.808Z,18.13
2023-03-22T02:03:55.338Z,19.37
2023-03-22T02:06:25.628Z,16.23
2023-03-22T02:09:06.495Z,14.00
2023-03-22T02:11:39.329Z,16.73
2023-03-22T02:14:41.874Z,26.97
2023-03-22T02:17:35.646Z,19.33
2023-03-22T02:20:47.163Z,19.97
2023-03-22T02:23:38.473Z,16.57
2023-03-22T02:26:44.105Z,16.23
2023-03-22T02:29:17.891Z,17.73
2023-03-22T02:32:14.375Z,18.73
2023-03-22T02:35:20.079Z,19.37
2023-03-22T02:38:18.760Z,17.50
2023-03-22T02:40:54.162Z,16.87
2023-03-22T02:43:34.352Z,20.70
2023-03-22T02:46:08.914Z,16.80
2023-03-22T02:48:43.135Z,17.37
2023-03-22T02:51:18.876Z,21.40
2023-03-22T02:53:54.412Z,15.60
2023-03-22T02:56:27.748Z,16.10
2023-03-22T02:58:59.698Z,15.23
2023-03-22T03:01:30.941Z,13.13
2023-03-22T03:04:02.702Z,14.07
2023-03-22T03:06:39.057Z,14.47
2023-03-22T03:09:09.171Z,13.80
2023-03-22T03:11:39.077Z,13.10
2023-03-22T03:14:07.476Z,12.50
2023-03-22T03:16:36.829Z,10.60
2023-03-22T03:19:13.242Z,8.70
2023-03-22T03:21:46.487Z,11.30
2023-03-22T03:24:24.119Z,10.00
2023-03-22T03:27:01.803Z,12.03
2023-03-22T03:29:38.361Z,11.53
2023-03-22T03:32:11.225Z,9.83
2023-03-22T03:34:49.572Z,10.80
2023-03-22T03:37:22.931Z,11.33
2023-03-22T03:40:13.915Z,8.97
2023-03-22T03:42:50.358Z,11.53
2023-03-22T03:45:22.288Z,11.37
2023-03-22T03:47:57.534Z,13.60
2023-03-22T03:50:28.328Z,10.53
2023-03-22T03:52:57.886Z,8.63
2023-03-22T03:55:28.184Z,11.23
2023-03-22T03:57:58.078Z,9.00
2023-03-22T04:00:26.555Z,11.87
2023-03-22T04:03:24.274Z,8.40
2023-03-22T04:06:09.986Z,8.67
2023-03-22T04:08:41.532Z,10.80
2023-03-22T04:11:10.618Z,9.43
2023-03-22T04:13:41.574Z,8.90
2023-03-22T04:16:14.873Z,9.03
2023-03-22T04:18:43.496Z,9.90
2023-03-22T04:21:12.729Z,7.90
2023-03-22T04:24:01.238Z,10.30
2023-03-22T04:26:34.321Z,8.50
2023-03-22T04:29:19.851Z,8.43
2023-03-22T04:31:53.181Z,11.83
2023-03-22T04:34:29.768Z,5.50
2023-03-22T04:37:02.786Z,7.20
2023-03-22T04:39:40.043Z,8.60
2023-03-22T04:42:34.959Z,9.17
2023-03-22T04:45:15.567Z,8.57
2023-03-22T04:47:47.777Z,8.07
2023-03-22T04:50:17.257Z,9.20
2023-03-22T04:52:52.343Z,10.60
2023-03-22T04:55:21.095Z,10.13
2023-03-22T04:57:51.302Z,9.70
2023-03-22T05:00:21.926Z,7.47
2023-03-22T05:02:50.818Z,11.40
2023-03-22T05:05:28.005Z,7.60
2023-03-22T05:07:57.608Z,11.30
2023-03-22T05:10:26.989Z,9.40
2023-03-22T05:12:55.754Z,7.47
2023-03-22T05:15:29.349Z,7.73
2023-03-22T05:17:59.475Z,10.07
2023-03-22T05:20:28.590Z,6.93
2023-03-22T05:23:12.484Z,12.33
2023-03-22T05:25:45.295Z,8.07
2023-03-22T05:28:19.584Z,6.83
2023-03-22T05:31:00.361Z,9.37
2023-03-22T05:33:41.616Z,9.27
2023-03-22T05:36:12.646Z,8.93
2023-03-22T05:38:56.199Z,5.67
2023-03-22T05:41:25.371Z,10.10
2023-03-22T05:43:53.961Z,11.27
2023-03-22T05:46:23.921Z,8.97
2023-03-22T05:49:12.541Z,9.37
2023-03-22T05:51:42.845Z,9.40
2023-03-22T05:54:13.439Z,7.47
2023-03-22T05:56:53.508Z,8.37
2023-03-22T05:59:26.375Z,10.57
2023-03-22T06:01:56.666Z,8.40
2023-03-22T06:04:25.764Z,7.73
2023-03-22T06:07:01.059Z,11.67
2023-03-22T06:09:58.683Z,11.63
2023-03-22T06:12:30.233Z,15.87
2023-03-22T06:15:12.859Z,10.67
2023-03-22T06:17:52.169Z,11.50
2023-03-22T06:20:25.778Z,10.10
2023-03-22T06:23:01.115Z,6.83
2023-03-22T06:25:29.600Z,12.33
2023-03-22T06:27:58.391Z,10.87
2023-03-22T06:30:27.182Z,6.47
2023-03-22T06:33:26.634Z,7.53
2023-03-22T06:36:02.162Z,12.67
2023-03-22T06:38:50.673Z,11.00
2023-03-22T06:41:19.220Z,11.43
2023-03-22T06:43:47.678Z,7.60
2023-03-22T06:46:31.110Z,15.27
2023-03-22T06:49:11.340Z,11.60
2023-03-22T06:51:39.890Z,15.13
2023-03-22T06:54:09.176Z,11.20
2023-03-22T06:56:37.616Z,11.80
2023-03-22T06:59:06.230Z,12.60
2023-03-22T07:01:34.869Z,16.53
2023-03-22T07:04:03.673Z,9.97
2023-03-22T07:06:33.602Z,11.07
2023-03-22T07:09:03.286Z,16.47
2023-03-22T07:11:35.732Z,10.17
2023-03-22T07:14:05.519Z,8.50
2023-03-22T07:17:03.708Z,10.07
2023-03-22T07:19:32.639Z,13.80
2023-03-22T07:22:07.150Z,7.23
2023-03-22T07:24:42.310Z,14.97
2023-03-22T07:27:19.484Z,10.13
2023-03-22T07:29:50.070Z,9.17
2023-03-22T07:32:18.784Z,10.37
2023-03-22T07:35:06.308Z,6.17
2023-03-22T07:37:36.317Z,9.27
2023-03-22T07:40:10.837Z,9.37
2023-03-22T07:42:39.360Z,7.73
2023-03-22T07:45:41.042Z,7.60
2023-03-22T07:48:32.655Z,11.03
2023-03-22T07:51:24.124Z,9.23
2023-03-22T07:53:55.400Z,10.57
2023-03-22T07:56:23.861Z,8.57
2023-03-22T07:58:52.418Z,7.60
2023-03-22T08:01:21.641Z,11.77
2023-03-22T08:03:59.597Z,10.23
2023-03-22T08:06:38.165Z,13.90
2023-03-22T08:09:09.523Z,11.47
2023-03-22T08:11:38.462Z,8.13
2023-03-22T08:14:07.547Z,11.60
2023-03-22T08:16:39.379Z,11.03
2023-03-22T08:19:08.239Z,9.70
2023-03-22T08:21:39.075Z,8.43
2023-03-22T08:24:14.171Z,12.47
2023-03-22T08:26:51.308Z,8.53
2023-03-22T08:29:30.271Z,10.83
2023-03-22T08:32:02.361Z,9.83
2023-03-22T08:34:31.471Z,8.93
2023-03-22T08:37:00.137Z,13.17
2023-03-22T08:39:30.479Z,6.87
2023-03-22T08:42:17.436Z,11.70
2023-03-22T08:44:46.327Z,9.33
2023-03-22T08:47:15.573Z,12.73
2023-03-22T08:49:45.381Z,8.80
2023-03-22T08:52:24.164Z,10.70
2023-03-22T08:55:05.406Z,13.87
2023-03-22T08:58:13.693Z,9.60
2023-03-22T09:00:57.687Z,5.93
2023-03-22T09:03:45.106Z,11.37
2023-03-22T09:06:14.307Z,9.47
2023-03-22T09:08:44.222Z,8.70
2023-03-22T09:11:18.074Z,13.70
2023-03-22T09:13:49.079Z,9.07
2023-03-22T09:16:18.581Z,8.00
2023-03-22T09:18:48.404Z,12.60
2023-03-22T09:21:19.713Z,9.23
2023-03-22T09:23:59.065Z,11.40
2023-03-22T09:26:47.558Z,11.83
2023-03-22T09:29:19.710Z,6.93
2023-03-22T09:31:49.547Z,8.10
2023-03-22T09:34:29.574Z,10.03
2023-03-22T09:37:10.580Z,12.60
2023-03-22T09:39:47.963Z,12.03
2023-03-22T09:42:32.673Z,14.13
2023-03-22T09:45:05.338Z,8.57
2023-03-22T09:47:45.607Z,9.90
2023-03-22T09:50:22.309Z,8.97
2023-03-22T09:52:51.298Z,15.13
2023-03-22T09:55:22.723Z,9.47
2023-03-22T09:58:02.149Z,8.83
2023-03-22T10:00:39.589Z,8.63
2023-03-22T10:03:22.072Z,10.47
2023-03-22T10:05:54.505Z,6.80
2023-03-22T10:08:35.368Z,9.23
2023-03-22T10:11:04.426Z,10.83
2023-03-22T10:13:41.641Z,8.77
2023-03-22T10:16:14.620Z,9.57
2023-03-22T10:18:47.336Z,8.47
2023-03-22T10:21:18.316Z,13.27
2023-03-22T10:23:52.012Z,10.53
2023-03-22T10:26:25.638Z,11.53
2023-03-22T10:29:03.486Z,8.30
2023-03-22T10:31:33.769Z,7.73
2023-03-22T10:34:06.825Z,9.90
2023-03-22T10:36:39.187Z,12.80
2023-03-22T10:39:18.807Z,8.43
2023-03-22T10:41:48.852Z,11.23
2023-03-22T10:44:20.676Z,9.40
2023-03-22T10:46:51.245Z,12.53
2023-03-22T10:49:26.579Z,8.70
2023-03-22T10:52:01.502Z,12.40
2023-03-22T10:54:30.482Z,8.53
2023-03-22T10:56:59.189Z,10.83
2023-03-22T10:59:48.557Z,10.77
2023-03-22T11:02:23.009Z,6.53
2023-03-22T11:04:59.722Z,7.13
2023-03-22T11:07:33.369Z,7.50
2023-03-22T11:10:14.809Z,8.70
2023-03-22T11:12:48.453Z,12.10
2023-03-22T11:15:26.351Z,8.63
2023-03-22T11:18:00.423Z,7.60
2023-03-22T11:20:31.132Z,12.60
2023-03-22T11:23:03.909Z,8.87
2023-03-22T11:25:35.504Z,6.27
2023-03-22T11:28:10.691Z,13.67
2023-03-22T11:30:41.236Z,4.47
2023-03-22T11:33:19.538Z,8.33
2023-03-22T11:35:49.533Z,8.23
2023-03-22T11:38:29.558Z,8.33
2023-03-22T11:41:02.333Z,7.97
2023-03-22T11:43:35.902Z,6.97
2023-03-22T11:46:08.527Z,5.87
2023-03-22T11:48:38.170Z,6.20
2023-03-22T11:51:10.560Z,8.20
2023-03-22T11:53:41.681Z,7.80
2023-03-22T11:56:14.780Z,7.50
2023-03-22T11:58:59.593Z,4.53
2023-03-22T12:01:37.670Z,9.57
2023-03-22T12:04:11.249Z,6.90
2023-03-22T12:06:42.398Z,8.40
2023-03-22T12:09:22.863Z,10.23
2023-03-22T12:11:54.349Z,9.03
2023-03-22T12:14:27.291Z,11.60
2023-03-22T12:17:01.033Z,5.30
2023-03-22T12:19:44.152Z,9.63
2023-03-22T12:22:17.640Z,6.57
2023-03-22T12:24:47.033Z,12.67
2023-03-22T12:27:20.968Z,5.70
2023-03-22T12:29:56.164Z,11.37
2023-03-22T12:32:30.001Z,5.67
2023-03-22T12:35:14.078Z,7.37
2023-03-22T12:37:47.667Z,5.70
2023-03-22T12:40:24.426Z,5.90
2023-03-22T12:43:08.356Z,6.20
2023-03-22T12:45:41.578Z,8.23
2023-03-22T12:48:18.149Z,6.43
2023-03-22T12:50:50.473Z,9.27
2023-03-22T12:53:21.647Z,5.83
2023-03-22T12:55:51.562Z,5.97
2023-03-22T12:58:22.531Z,7.97
2023-03-22T13:00:55.455Z,5.23
2023-03-22T13:03:29.085Z,6.93
2023-03-22T13:06:05.494Z,7.43
2023-03-22T13:09:03.920Z,6.23
2023-03-22T13:11:32.469Z,7.60
2023-03-22T13:14:01.487Z,8.87
2023-03-22T13:17:00.349Z,9.23
2023-03-22T13:19:36.975Z,8.43
2023-03-22T13:22:27.088Z,6.00
2023-03-22T13:25:00.850Z,8.53
2023-03-22T13:27:41.833Z,6.40
2023-03-22T13:30:23.486Z,7.23
2023-03-22T13:32:56.223Z,8.33
2023-03-22T13:35:29.254Z,8.40
2023-03-22T13:38:03.968Z,6.93
2023-03-22T13:40:38.063Z,6.07
2023-03-22T13:43:12.159Z,6.87
2023-03-22T13:46:20.081Z,5.87
2023-03-22T13:49:14.471Z,6.73
2023-03-22T13:51:45.169Z,4.93
2023-03-22T13:54:24.053Z,8.10
2023-03-22T13:56:57.119Z,6.70
2023-03-22T13:59:31.123Z,7.77
2023-03-22T14:02:05.797Z,7.90
2023-03-22T14:04:40.884Z,7.23
2023-03-22T14:07:24.293Z,5.47
2023-03-22T14:09:57.067Z,10.33
2023-03-22T14:12:32.144Z,8.80
2023-03-22T14:15:04.187Z,6.37
2023-03-22T14:17:37.037Z,7.47
2023-03-22T14:20:10.606Z,6.07
